Sweeney Granite Mountains, California Weather observations

Data are for 10 minute period ending at time listed.
 Day   Time   Solar   Ave.   Ave.  Ave.  Vector  Max.   Baro.   Total    
  of    of     Rad.   Air    Rel.  Wind   Wind   Wind  Press.  Precip.   
Year   Day            Temp.  Hum.  Speed  Dir.   Gust                    
2015   (PST)  Kw/m2    F      %     mph   deg.    mph    mb.     in.     
-------------------------------------------------------------------------
  64    0:00   0.00   41.1    21    2.4   351     4.9   875.3    0.00 
  64    0:10   0.00   44.6    15    3.6    39     7.7   875.4    0.00 
  64    0:20   0.00   45.9    15    3.3    30     6.9   875.4    0.00 
  64    0:30   0.00   45.8    15    3.1    28     6.3   875.5    0.00 
  64    0:40   0.00   45.8    15    3.3    60     6.9   875.5    0.00 
  64    0:50   0.00   46.3    16    4.4    26     8.2   875.6    0.00 
  64    1:00   0.00   46.0    16    2.8    52     7.5   875.6    0.00 
  64    1:10   0.00   45.9    16    3.5    24     7.9   875.6    0.00 
  64    1:20   0.00   45.9    17    3.5    46     7.4   875.6    0.00 
  64    1:30   0.00   45.4    18    3.5    13     7.2   875.6    0.00 
  64    1:40   0.00   45.9    18    4.6    40     8.6   875.6    0.00 
  64    1:50   0.00   45.3    21    3.5   352     6.5   875.6    0.00 
  64    2:00   0.00   43.5    22    2.7   351     6.1   875.6    0.00 
  64    2:10   0.00   43.2    23    1.9   339     5.1   875.6    0.00 
  64    2:20   0.00   42.5    24    1.4    46     4.6   875.6    0.00 
  64    2:30   0.00   40.7    27    1.5    26     3.7   875.5    0.00 
  64    2:40   0.00   39.9    27    1.4   333     5.0   875.5    0.00 
  64    2:50   0.00   41.0    26    2.1   360     6.4   875.4    0.00 
  64    3:00   0.00   41.9    22    2.1    67     5.8   875.5    0.00 
  64    3:10   0.00   41.1    25    1.3   146     4.8   875.5    0.00 
  64    3:20   0.00   40.6    27    3.2   330     7.4   875.6    0.00 
  64    3:30   0.00   38.9    29    1.9    33     5.0   875.6    0.00 
  64    3:40   0.00   40.2    26    1.7    40     7.2   875.6    0.00 
  64    3:50   0.00   41.8    25    3.2    29     7.2   875.7    0.00 
  64    4:00   0.00   43.5    22    2.7    27     5.8   875.7    0.00 
  64    4:10   0.00   42.9    24    1.9   344     5.3   875.8    0.00 
  64    4:20   0.00   39.8    29    2.4   330     4.4   875.8    0.00 
  64    4:30   0.00   41.1    26    2.7   356     8.4   875.9    0.00 
  64    4:40   0.00   40.3    28    3.0   289     8.0   876.0    0.00 
  64    4:50   0.00   40.9    27    2.7   256     5.3   876.2    0.00 
  64    5:00   0.00   39.3    29    2.9   278     5.2   876.2    0.00 
  64    5:10   0.00   39.4    30    3.6   293     4.9   876.4    0.00 
  64    5:20   0.00   36.8    35    3.0   280     4.4   876.5    0.00 
  64    5:30   0.00   33.9    41    2.8   287     4.3   876.6    0.00 
  64    5:40   0.00   34.9    40    3.0   299     4.5   876.7    0.00 
  64    5:50   0.00   35.0    39    3.7   293     5.1   876.7    0.00 
  64    6:00   0.00   34.2    41    3.6   287     4.5   876.7    0.00 
  64    6:10   0.00   35.7    37    3.0   281     4.7   876.8    0.00 
  64    6:20   0.01   38.0    31    3.3   282     5.4   876.9    0.00 
  64    6:30   0.02   41.4    26    3.4   281     5.6   877.1    0.00 
  64    6:40   0.04   42.3    25    4.1   284     6.0   877.2    0.00 
  64    6:50   0.07   43.5    24    4.9   297     6.5   877.3    0.00 
  64    7:00   0.11   44.5    24    4.7   306     6.1   877.5    0.00 
  64    7:10   0.14   46.3    22    4.6   306     6.9   877.6    0.00 
  64    7:20   0.17   47.9    20    3.0   301     5.4   877.8    0.00 
  64    7:30   0.22   49.7    18    2.0   272     3.8   877.9    0.00 
  64    7:40   0.26   51.4    18    2.1    51     3.7   878.0    0.00 
  64    7:50   0.29   51.8    17    1.5   104     3.4   878.1    0.00 
  64    8:00   0.33   53.1    17    1.5    59     4.1   878.1    0.00 
  64    8:10   0.37   51.5    19    3.2   135     5.5   878.3    0.00 
  64    8:20   0.40   51.5    19    2.2   172     4.5   878.4    0.00 
  64    8:30   0.44   52.1    18    2.0   154     4.5   878.4    0.00 
  64    8:40   0.48   52.4    19    1.9    79     4.7   878.4    0.00 
  64    8:50   0.52   53.6    18    2.0   155     4.7   878.5    0.00 
  64    9:00   0.54   52.8    18    2.8   112     6.0   878.5    0.00 
  64    9:10   0.56   53.3    18    4.2   122     8.2   878.5    0.00 
  64    9:20   0.61   52.8    20    4.7   190     7.3   878.4    0.00 
  64    9:30   0.64   53.5    18    5.5   151    10.4   878.5    0.00 
  64    9:40   0.65   52.2    19    7.0   133    10.2   878.5    0.00 
  64    9:50   0.68   52.7    16    7.2   141    12.8   878.5    0.00 
  64   10:00   0.70   53.1    17    6.2   140     9.9   878.6    0.00 
  64   10:10   0.73   53.3    19    5.9   119    10.8   878.6    0.00 
  64   10:20   0.75   53.7    19    4.8   132     8.8   878.5    0.00 
  64   10:30   0.77   53.6    20    7.7   124    13.9   878.5    0.00 
  64   10:40   0.79   53.5    20    6.2   124    11.0   878.5    0.00 
  64   10:50   0.80   54.7    21    6.3   112    11.7   878.5    0.00 
  64   11:00   0.82   55.6    20    4.5   125    12.1   878.5    0.00 
  64   11:10   0.83   55.2    19    3.8   140     8.5   878.5    0.00 
  64   11:20   0.84   55.3    19    6.3   121    11.0   878.4    0.00 
  64   11:30   0.85   54.9    19    6.3   145    14.2   878.4    0.00 
  64   11:40   0.85   55.0    19    5.9   127    11.5   878.3    0.00 
  64   11:50   0.85   55.3    20    7.4   119    13.7   878.1    0.00 
  64   12:00   0.85   56.2    20    4.7   129    10.0   878.0    0.00 
  64   12:10   0.57   56.3    18    4.7   138    12.6   878.0    0.00 
  64   12:20   0.85   56.5    19    6.4   136    12.5   877.8    0.00 
  64   12:30   0.85   57.0    19    5.2   143    13.5   877.7    0.00 
  64   12:40   0.85   57.5    19    4.9    43     8.6   877.5    0.00 
  64   12:50   0.84   57.0    19    2.9   116     6.8   877.4    0.00 
  64   13:00   0.81   58.1    18    2.6   224     7.9   877.2    0.00 
  64   13:10   0.82   58.1    19    3.3   127     6.8   877.2    0.00 
  64   13:20   0.80   58.7    18    4.0   108     9.6   877.1    0.00 
  64   13:30   0.78   57.8    18    5.3   140     9.9   877.0    0.00 
  64   13:40   0.76   58.4    17    4.1   160     8.4   877.0    0.00 
  64   13:50   0.74   58.7    18    3.8   124     9.1   877.0    0.00 
  64   14:00   0.72   58.7    20    5.7    56    10.2   876.9    0.00 
  64   14:10   0.70   57.9    21    5.9    53     9.1   876.9    0.00 
  64   14:20   0.68   58.1    20    4.7    53     8.4   876.9    0.00 
  64   14:30   0.65   59.0    19    4.1    95     9.3   876.9    0.00 
  64   14:40   0.63   58.3    19    5.2    94     8.2   877.0    0.00 
  64   14:50   0.60   58.9    18    3.9    41     6.9   877.0    0.00 
  64   15:00   0.57   58.4    18    6.5   106    11.9   877.0    0.00 
  64   15:10   0.54   58.7    18    2.9   104     7.5   877.1    0.00 
  64   15:20   0.51   58.6    18    3.6    80     8.8   877.1    0.00 
  64   15:30   0.47   58.9    18    3.9    86    10.0   877.0    0.00 
  64   15:40   0.44   59.5    18    4.2   119     8.3   876.9    0.00 
  64   15:50   0.29   58.0    19    5.1   139     8.4   876.9    0.00 
  64   16:00   0.03   56.2    20    4.6   134     7.2   876.7    0.00 
  64   16:10   0.03   55.9    20    3.3   117     6.8   876.6    0.00 
  64   16:20   0.03   55.4    21    1.9   124     6.4   876.5    0.00 
  64   16:30   0.03   55.0    22    2.8   121     5.4   876.4    0.00 
  64   16:40   0.03   54.9    21    3.3    75     6.4   876.4    0.00 
  64   16:50   0.03   54.8    21    1.3    96     3.9   876.4    0.00 
  64   17:00   0.01   53.9    22    2.6    90     5.8   876.4    0.00 
  64   17:10   0.01   54.1    22    1.0   248     5.3   876.4    0.00 
  64   17:20   0.01   52.4    26    5.1   284     7.8   876.5    0.00 
  64   17:30   0.01   51.8    26    4.9   296     7.3   876.6    0.00 
  64   17:40   0.00   51.5    27    5.6   289     8.9   876.6    0.00 
  64   17:50   0.00   50.6    29    4.7   286     7.2   876.6    0.00 
  64   18:00   0.00   51.2    27    3.9   319     7.1   876.7    0.00 
  64   18:10   0.00   50.4    29    4.9   307     6.8   876.7    0.00 
  64   18:20   0.00   51.4    27    4.4   320     8.8   876.9    0.00 
  64   18:30   0.00   51.8    27    5.1   334    10.1   876.9    0.00 
  64   18:40   0.00   51.1    28    8.4   302    15.3   877.0    0.00 
  64   18:50   0.00   51.5    26   10.3   306    18.1   877.0    0.00 
  64   19:00   0.00   51.3    25   12.4   302    19.3   877.0    0.00 
  64   19:10   0.00   51.2    24   14.1   302    22.1   876.8    0.00 
  64   19:20   0.00   51.2    24   15.0   307    21.3   876.8    0.00 
  64   19:30   0.00   51.2    24   15.3   309    21.6   876.8    0.00 
  64   19:40   0.00   51.1    23   14.6   306    21.4   876.9    0.00 
  64   19:50   0.00   50.9    23   13.9   305    21.4   876.9    0.00 
  64   20:00   0.00   50.9    22   13.5   307    19.6   877.0    0.00 
  64   20:10   0.00   50.8    22   13.0   312    18.8   877.1    0.00 
  64   20:20   0.00   50.7    22   13.0   314    19.6   877.1    0.00 
  64   20:30   0.00   50.5    21   13.9   311    19.1   877.1    0.00 
  64   20:40   0.00   50.6    21   14.3   312    19.7   877.1    0.00 
  64   20:50   0.00   50.6    20   13.5   309    17.6   877.1    0.00 
  64   21:00   0.00   50.5    20   11.9   308    18.3   877.1    0.00 
  64   21:10   0.00   50.8    19    9.6   311    13.8   877.1    0.00 
  64   21:20   0.00   51.5    16    8.5   312    12.3   877.2    0.00 
  64   21:30   0.00   51.5    15    6.7   315     9.9   877.3    0.00 
  64   21:40   0.00   51.4    14    5.7   317     7.9   877.3    0.00 
  64   21:50   0.00   51.8    13    4.7   303    11.5   877.3    0.00 
  64   22:00   0.00   50.9    14    3.9   288     5.7   877.3    0.00 

Return to Sweeney Granite Mountains graphs page.


Western Regional Climate Center,wrcc@dri.edu